sensor_id;sensor_type;location;lat;lon;timestamp;temperature;humidity
1988;DHT22;12775;46.994;15.498;2024-01-11T00:02:04;-1.00;78.30
1988;DHT22;12775;46.994;15.498;2024-01-11T00:04:30;-1.00;78.20
1988;DHT22;12775;46.994;15.498;2024-01-11T00:06:57;-1.10;78.70
1988;DHT22;12775;46.994;15.498;2024-01-11T00:09:23;-1.20;79.30
1988;DHT22;12775;46.994;15.498;2024-01-11T00:11:50;-1.20;79.80
1988;DHT22;12775;46.994;15.498;2024-01-11T00:14:18;-1.30;79.80
1988;DHT22;12775;46.994;15.498;2024-01-11T00:16:46;-1.30;80.30
1988;DHT22;12775;46.994;15.498;2024-01-11T00:19:12;-1.30;80.80
1988;DHT22;12775;46.994;15.498;2024-01-11T00:21:39;-1.40;81.30
1988;DHT22;12775;46.994;15.498;2024-01-11T00:24:05;-1.40;81.30
1988;DHT22;12775;46.994;15.498;2024-01-11T00:26:32;-1.30;81.30
1988;DHT22;12775;46.994;15.498;2024-01-11T00:28:59;-1.20;80.20
1988;DHT22;12775;46.994;15.498;2024-01-11T00:31:26;-1.30;80.10
1988;DHT22;12775;46.994;15.498;2024-01-11T00:33:53;-1.30;80.20
1988;DHT22;12775;46.994;15.498;2024-01-11T00:36:19;-1.30;80.50
1988;DHT22;12775;46.994;15.498;2024-01-11T00:38:46;-1.20;80.10
1988;DHT22;12775;46.994;15.498;2024-01-11T00:41:12;-1.20;79.80
1988;DHT22;12775;46.994;15.498;2024-01-11T00:43:39;-1.20;80.00
1988;DHT22;12775;46.994;15.498;2024-01-11T00:46:07;-1.20;80.20
1988;DHT22;12775;46.994;15.498;2024-01-11T00:48:35;-1.20;79.50
1988;DHT22;12775;46.994;15.498;2024-01-11T00:51:03;-1.30;79.50
1988;DHT22;12775;46.994;15.498;2024-01-11T00:53:29;-1.30;79.60
1988;DHT22;12775;46.994;15.498;2024-01-11T00:55:57;-1.30;80.10
1988;DHT22;12775;46.994;15.498;2024-01-11T00:58:22;-1.30;80.00
1988;DHT22;12775;46.994;15.498;2024-01-11T01:00:49;-1.30;80.00
1988;DHT22;12775;46.994;15.498;2024-01-11T01:03:15;-1.30;79.90
1988;DHT22;12775;46.994;15.498;2024-01-11T01:05:43;-1.30;79.60
1988;DHT22;12775;46.994;15.498;2024-01-11T01:08:09;-1.30;79.60
1988;DHT22;12775;46.994;15.498;2024-01-11T01:10:37;-1.30;79.30
1988;DHT22;12775;46.994;15.498;2024-01-11T01:13:03;-1.30;79.20
1988;DHT22;12775;46.994;15.498;2024-01-11T01:15:31;-1.30;79.10
1988;DHT22;12775;46.994;15.498;2024-01-11T01:17:57;-1.40;79.00
1988;DHT22;12775;46.994;15.498;2024-01-11T01:20:24;-1.30;79.50
1988;DHT22;12775;46.994;15.498;2024-01-11T01:22:50;-1.40;78.80
1988;DHT22;12775;46.994;15.498;2024-01-11T01:25:17;-1.40;79.00
1988;DHT22;12775;46.994;15.498;2024-01-11T01:27:44;-1.40;79.10
1988;DHT22;12775;46.994;15.498;2024-01-11T01:30:11;-1.40;79.20
1988;DHT22;12775;46.994;15.498;2024-01-11T01:32:37;-1.40;78.60
1988;DHT22;12775;46.994;15.498;2024-01-11T01:35:04;-1.40;78.80
1988;DHT22;12775;46.994;15.498;2024-01-11T01:37:31;-1.50;78.90
1988;DHT22;12775;46.994;15.498;2024-01-11T01:39:58;-1.50;79.20
1988;DHT22;12775;46.994;15.498;2024-01-11T01:42:25;-1.50;79.30
1988;DHT22;12775;46.994;15.498;2024-01-11T01:44:51;-1.50;79.40
1988;DHT22;12775;46.994;15.498;2024-01-11T01:47:19;-1.60;79.20
1988;DHT22;12775;46.994;15.498;2024-01-11T01:49:45;-1.60;79.20
1988;DHT22;12775;46.994;15.498;2024-01-11T01:52:13;-1.60;79.40
1988;DHT22;12775;46.994;15.498;2024-01-11T01:54:40;-1.60;79.00
1988;DHT22;12775;46.994;15.498;2024-01-11T01:57:07;-1.60;79.00
1988;DHT22;12775;46.994;15.498;2024-01-11T01:59:34;-1.60;78.90
1988;DHT22;12775;46.994;15.498;2024-01-11T02:02:01;-1.60;78.80
1988;DHT22;12775;46.994;15.498;2024-01-11T02:04:27;-1.60;79.10
1988;DHT22;12775;46.994;15.498;2024-01-11T02:06:55;-1.70;79.30
1988;DHT22;12775;46.994;15.498;2024-01-11T02:09:21;-1.70;79.30
1988;DHT22;12775;46.994;15.498;2024-01-11T02:11:48;-1.70;78.90
1988;DHT22;12775;46.994;15.498;2024-01-11T02:14:14;-1.70;79.10
1988;DHT22;12775;46.994;15.498;2024-01-11T02:16:42;-1.70;79.20
1988;DHT22;12775;46.994;15.498;2024-01-11T02:19:08;-1.80;79.10
1988;DHT22;12775;46.994;15.498;2024-01-11T02:21:36;-1.80;79.70
1988;DHT22;12775;46.994;15.498;2024-01-11T02:24:03;-1.80;79.70
1988;DHT22;12775;46.994;15.498;2024-01-11T02:26:30;-1.80;79.70
1988;DHT22;12775;46.994;15.498;2024-01-11T02:28:56;-1.80;78.80
1988;DHT22;12775;46.994;15.498;2024-01-11T02:31:24;-1.90;78.20
1988;DHT22;12775;46.994;15.498;2024-01-11T02:33:52;-2.00;78.70
1988;DHT22;12775;46.994;15.498;2024-01-11T02:36:19;-2.10;78.60
1988;DHT22;12775;46.994;15.498;2024-01-11T02:38:45;-2.10;79.50
1988;DHT22;12775;46.994;15.498;2024-01-11T02:41:12;-2.30;80.10
1988;DHT22;12775;46.994;15.498;2024-01-11T02:43:38;-2.40;80.70
1988;DHT22;12775;46.994;15.498;2024-01-11T02:46:06;-2.60;82.60
1988;DHT22;12775;46.994;15.498;2024-01-11T02:48:32;-2.60;82.60
1988;DHT22;12775;46.994;15.498;2024-01-11T02:50:59;-2.60;84.60
1988;DHT22;12775;46.994;15.498;2024-01-11T02:53:25;-2.70;86.10
1988;DHT22;12775;46.994;15.498;2024-01-11T02:55:52;-2.60;87.80
1988;DHT22;12775;46.994;15.498;2024-01-11T02:58:19;-2.60;87.90
1988;DHT22;12775;46.994;15.498;2024-01-11T03:00:45;-2.70;87.50
1988;DHT22;12775;46.994;15.498;2024-01-11T03:03:12;-3.00;89.60
1988;DHT22;12775;46.994;15.498;2024-01-11T03:05:38;-3.10;89.80
1988;DHT22;12775;46.994;15.498;2024-01-11T03:08:05;-3.10;90.00
1988;DHT22;12775;46.994;15.498;2024-01-11T03:10:32;-3.20;91.00
1988;DHT22;12775;46.994;15.498;2024-01-11T03:12:58;-3.40;91.80
1988;DHT22;12775;46.994;15.498;2024-01-11T03:15:26;-3.60;93.40
1988;DHT22;12775;46.994;15.498;2024-01-11T03:17:52;-3.60;93.40
1988;DHT22;12775;46.994;15.498;2024-01-11T03:20:19;-3.60;93.90
1988;DHT22;12775;46.994;15.498;2024-01-11T03:22:46;-3.50;94.30
1988;DHT22;12775;46.994;15.498;2024-01-11T03:25:12;-3.40;94.80
1988;DHT22;12775;46.994;15.498;2024-01-11T03:27:39;-3.20;94.90
1988;DHT22;12775;46.994;15.498;2024-01-11T03:30:07;-3.10;94.60
1988;DHT22;12775;46.994;15.498;2024-01-11T03:32:34;-3.10;94.60
1988;DHT22;12775;46.994;15.498;2024-01-11T03:35:00;-3.00;93.90
1988;DHT22;12775;46.994;15.498;2024-01-11T03:37:27;-2.90;92.80
1988;DHT22;12775;46.994;15.498;2024-01-11T03:39:54;-2.80;92.10
1988;DHT22;12775;46.994;15.498;2024-01-11T03:42:21;-2.70;91.50
1988;DHT22;12775;46.994;15.498;2024-01-11T03:44:48;-2.70;91.80
1988;DHT22;12775;46.994;15.498;2024-01-11T03:47:14;-2.60;91.00
1988;DHT22;12775;46.994;15.498;2024-01-11T03:49:42;-2.50;89.60
1988;DHT22;12775;46.994;15.498;2024-01-11T03:52:09;-2.50;89.10
1988;DHT22;12775;46.994;15.498;2024-01-11T03:54:36;-2.40;89.10
1988;DHT22;12775;46.994;15.498;2024-01-11T03:57:03;-2.50;89.10
1988;DHT22;12775;46.994;15.498;2024-01-11T03:59:30;-2.40;89.00
1988;DHT22;12775;46.994;15.498;2024-01-11T04:01:57;-2.40;88.50
1988;DHT22;12775;46.994;15.498;2024-01-11T04:04:23;-2.40;87.70
1988;DHT22;12775;46.994;15.498;2024-01-11T04:06:50;-2.30;86.60
1988;DHT22;12775;46.994;15.498;2024-01-11T04:09:17;-2.30;86.40
1988;DHT22;12775;46.994;15.498;2024-01-11T04:11:44;-2.30;86.40
1988;DHT22;12775;46.994;15.498;2024-01-11T04:14:10;-2.30;86.10
1988;DHT22;12775;46.994;15.498;2024-01-11T04:16:41;-2.40;86.20
1988;DHT22;12775;46.994;15.498;2024-01-11T04:19:07;-2.40;86.40
1988;DHT22;12775;46.994;15.498;2024-01-11T04:21:34;-2.40;86.80
1988;DHT22;12775;46.994;15.498;2024-01-11T04:24:00;-2.50;87.00
1988;DHT22;12775;46.994;15.498;2024-01-11T04:26:27;-2.50;86.40
1988;DHT22;12775;46.994;15.498;2024-01-11T04:28:54;-2.50;86.30
1988;DHT22;12775;46.994;15.498;2024-01-11T04:31:22;-2.50;87.00
1988;DHT22;12775;46.994;15.498;2024-01-11T04:33:48;-2.60;87.00
1988;DHT22;12775;46.994;15.498;2024-01-11T04:36:15;-2.50;87.00
1988;DHT22;12775;46.994;15.498;2024-01-11T04:38:41;-2.50;86.20
1988;DHT22;12775;46.994;15.498;2024-01-11T04:41:09;-2.50;86.10
1988;DHT22;12775;46.994;15.498;2024-01-11T04:43:43;-2.60;86.00
1988;DHT22;12775;46.994;15.498;2024-01-11T04:46:15;-2.50;85.70
1988;DHT22;12775;46.994;15.498;2024-01-11T04:48:41;-2.50;85.20
1988;DHT22;12775;46.994;15.498;2024-01-11T04:51:08;-2.60;85.10
1988;DHT22;12775;46.994;15.498;2024-01-11T04:53:37;-2.70;85.00
1988;DHT22;12775;46.994;15.498;2024-01-11T04:56:04;-2.70;85.60
1988;DHT22;12775;46.994;15.498;2024-01-11T04:58:30;-2.80;85.60
1988;DHT22;12775;46.994;15.498;2024-01-11T05:00:57;-2.70;85.80
1988;DHT22;12775;46.994;15.498;2024-01-11T05:03:24;-2.70;86.00
1988;DHT22;12775;46.994;15.498;2024-01-11T05:05:50;-2.70;85.00
1988;DHT22;12775;46.994;15.498;2024-01-11T05:08:18;-2.70;84.80
1988;DHT22;12775;46.994;15.498;2024-01-11T05:10:44;-2.70;84.80
1988;DHT22;12775;46.994;15.498;2024-01-11T05:13:12;-2.70;84.90
1988;DHT22;12775;46.994;15.498;2024-01-11T05:15:39;-2.70;84.00
1988;DHT22;12775;46.994;15.498;2024-01-11T05:18:06;-2.70;84.40
1988;DHT22;12775;46.994;15.498;2024-01-11T05:20:34;-2.60;84.20
1988;DHT22;12775;46.994;15.498;2024-01-11T05:23:01;-2.60;84.20
1988;DHT22;12775;46.994;15.498;2024-01-11T05:25:29;-2.60;84.30
1988;DHT22;12775;46.994;15.498;2024-01-11T05:27:56;-2.60;84.20
1988;DHT22;12775;46.994;15.498;2024-01-11T05:30:23;-2.70;84.40
1988;DHT22;12775;46.994;15.498;2024-01-11T05:32:50;-2.60;84.20
1988;DHT22;12775;46.994;15.498;2024-01-11T05:35:18;-2.60;83.70
1988;DHT22;12775;46.994;15.498;2024-01-11T05:37:44;-2.60;83.70
1988;DHT22;12775;46.994;15.498;2024-01-11T05:40:12;-2.60;84.00
1988;DHT22;12775;46.994;15.498;2024-01-11T05:42:38;-2.60;84.10
1988;DHT22;12775;46.994;15.498;2024-01-11T05:45:06;-2.60;83.90
1988;DHT22;12775;46.994;15.498;2024-01-11T05:47:32;-2.60;83.40
1988;DHT22;12775;46.994;15.498;2024-01-11T05:49:59;-2.60;83.30
1988;DHT22;12775;46.994;15.498;2024-01-11T05:52:25;-2.50;83.10
1988;DHT22;12775;46.994;15.498;2024-01-11T05:54:52;-2.50;83.10
1988;DHT22;12775;46.994;15.498;2024-01-11T05:57:19;-2.50;82.60
1988;DHT22;12775;46.994;15.498;2024-01-11T05:59:46;-2.50;81.60
1988;DHT22;12775;46.994;15.498;2024-01-11T06:02:13;-2.50;81.70
1988;DHT22;12775;46.994;15.498;2024-01-11T06:04:39;-2.50;81.30
1988;DHT22;12775;46.994;15.498;2024-01-11T06:07:07;-2.70;81.40
1988;DHT22;12775;46.994;15.498;2024-01-11T06:09:34;-2.70;81.60
1988;DHT22;12775;46.994;15.498;2024-01-11T06:12:01;-2.70;81.90
1988;DHT22;12775;46.994;15.498;2024-01-11T06:14:29;-2.80;84.00
1988;DHT22;12775;46.994;15.498;2024-01-11T06:16:56;-2.80;84.30
1988;DHT22;12775;46.994;15.498;2024-01-11T06:19:23;-2.80;83.60
1988;DHT22;12775;46.994;15.498;2024-01-11T06:21:51;-2.80;83.50
1988;DHT22;12775;46.994;15.498;2024-01-11T06:24:18;-2.80;83.20
1988;DHT22;12775;46.994;15.498;2024-01-11T06:26:46;-2.80;82.90
1988;DHT22;12775;46.994;15.498;2024-01-11T06:29:13;-2.80;82.50
1988;DHT22;12775;46.994;15.498;2024-01-11T06:31:40;-2.80;82.20
1988;DHT22;12775;46.994;15.498;2024-01-11T06:34:08;-2.80;82.70
1988;DHT22;12775;46.994;15.498;2024-01-11T06:36:35;-2.80;82.40
1988;DHT22;12775;46.994;15.498;2024-01-11T06:39:02;-2.80;82.60
1988;DHT22;12775;46.994;15.498;2024-01-11T06:41:30;-2.80;82.50
1988;DHT22;12775;46.994;15.498;2024-01-11T06:43:56;-2.90;82.40
1988;DHT22;12775;46.994;15.498;2024-01-11T06:46:24;-2.80;81.90
1988;DHT22;12775;46.994;15.498;2024-01-11T06:48:51;-2.80;82.30
1988;DHT22;12775;46.994;15.498;2024-01-11T06:51:21;-2.90;82.00
1988;DHT22;12775;46.994;15.498;2024-01-11T06:53:48;-2.90;82.20
1988;DHT22;12775;46.994;15.498;2024-01-11T06:56:17;-2.90;81.80
1988;DHT22;12775;46.994;15.498;2024-01-11T06:58:44;-2.90;82.10
1988;DHT22;12775;46.994;15.498;2024-01-11T07:01:11;-2.90;82.40
1988;DHT22;12775;46.994;15.498;2024-01-11T07:03:38;-3.00;82.70
1988;DHT22;12775;46.994;15.498;2024-01-11T07:06:06;-3.00;83.00
1988;DHT22;12775;46.994;15.498;2024-01-11T07:08:34;-3.00;82.90
1988;DHT22;12775;46.994;15.498;2024-01-11T07:11:01;-3.00;82.70
1988;DHT22;12775;46.994;15.498;2024-01-11T07:13:30;-3.10;83.10
1988;DHT22;12775;46.994;15.498;2024-01-11T07:15:57;-3.10;83.60
1988;DHT22;12775;46.994;15.498;2024-01-11T07:18:25;-3.10;84.10
1988;DHT22;12775;46.994;15.498;2024-01-11T07:20:52;-3.10;84.80
1988;DHT22;12775;46.994;15.498;2024-01-11T07:23:18;-3.20;84.80
1988;DHT22;12775;46.994;15.498;2024-01-11T07:25:45;-3.10;85.30
1988;DHT22;12775;46.994;15.498;2024-01-11T07:28:11;-3.10;86.50
1988;DHT22;12775;46.994;15.498;2024-01-11T07:30:38;-3.10;86.00
1988;DHT22;12775;46.994;15.498;2024-01-11T07:33:06;-3.10;86.90
1988;DHT22;12775;46.994;15.498;2024-01-11T07:35:34;-3.10;87.10
1988;DHT22;12775;46.994;15.498;2024-01-11T07:38:00;-3.10;87.20
1988;DHT22;12775;46.994;15.498;2024-01-11T07:40:28;-3.00;88.10
1988;DHT22;12775;46.994;15.498;2024-01-11T07:42:55;-3.00;89.20
1988;DHT22;12775;46.994;15.498;2024-01-11T07:45:22;-3.00;88.70
1988;DHT22;12775;46.994;15.498;2024-01-11T07:47:50;-3.10;88.50
1988;DHT22;12775;46.994;15.498;2024-01-11T07:50:17;-3.10;89.50
1988;DHT22;12775;46.994;15.498;2024-01-11T07:52:44;-3.10;90.30
1988;DHT22;12775;46.994;15.498;2024-01-11T07:55:12;-3.00;91.10
1988;DHT22;12775;46.994;15.498;2024-01-11T07:57:39;-3.00;91.40
1988;DHT22;12775;46.994;15.498;2024-01-11T08:00:07;-3.00;91.70
1988;DHT22;12775;46.994;15.498;2024-01-11T08:02:34;-2.90;91.70
1988;DHT22;12775;46.994;15.498;2024-01-11T08:05:01;-2.80;91.60
1988;DHT22;12775;46.994;15.498;2024-01-11T08:07:28;-2.90;92.00
1988;DHT22;12775;46.994;15.498;2024-01-11T08:09:56;-2.90;93.50
1988;DHT22;12775;46.994;15.498;2024-01-11T08:12:24;-2.90;93.80
1988;DHT22;12775;46.994;15.498;2024-01-11T08:14:51;-2.90;94.90
1988;DHT22;12775;46.994;15.498;2024-01-11T08:17:19;-3.00;95.70
1988;DHT22;12775;46.994;15.498;2024-01-11T08:19:46;-3.20;96.80
1988;DHT22;12775;46.994;15.498;2024-01-11T08:22:14;-3.20;97.40
1988;DHT22;12775;46.994;15.498;2024-01-11T08:24:42;-3.20;98.30
1988;DHT22;12775;46.994;15.498;2024-01-11T08:27:09;-3.10;98.50
1988;DHT22;12775;46.994;15.498;2024-01-11T08:29:37;-3.20;99.10
1988;DHT22;12775;46.994;15.498;2024-01-11T08:32:04;-3.20;99.40
1988;DHT22;12775;46.994;15.498;2024-01-11T08:34:31;-3.10;99.70
1988;DHT22;12775;46.994;15.498;2024-01-11T08:36:59;-3.10;99.90
1988;DHT22;12775;46.994;15.498;2024-01-11T08:39:26;-3.00;99.90
1988;DHT22;12775;46.994;15.498;2024-01-11T08:41:53;-2.90;99.90
1988;DHT22;12775;46.994;15.498;2024-01-11T08:44:21;-2.90;99.90
1988;DHT22;12775;46.994;15.498;2024-01-11T08:46:48;-2.90;99.90
1988;DHT22;12775;46.994;15.498;2024-01-11T08:49:15;-2.90;99.90
1988;DHT22;12775;46.994;15.498;2024-01-11T08:51:41;-2.80;99.90
1988;DHT22;12775;46.994;15.498;2024-01-11T08:54:09;-2.70;99.90
1988;DHT22;12775;46.994;15.498;2024-01-11T08:56:36;-2.50;99.90
1988;DHT22;12775;46.994;15.498;2024-01-11T08:59:03;-2.50;99.90
1988;DHT22;12775;46.994;15.498;2024-01-11T09:01:31;-2.30;99.90
1988;DHT22;12775;46.994;15.498;2024-01-11T09:03:58;-2.30;99.90
1988;DHT22;12775;46.994;15.498;2024-01-11T09:06:26;-2.20;99.90
1988;DHT22;12775;46.994;15.498;2024-01-11T09:08:53;-2.10;99.90
1988;DHT22;12775;46.994;15.498;2024-01-11T09:11:20;-2.00;99.90
1988;DHT22;12775;46.994;15.498;2024-01-11T09:13:48;-2.00;99.90
1988;DHT22;12775;46.994;15.498;2024-01-11T09:16:15;-1.90;99.90
1988;DHT22;12775;46.994;15.498;2024-01-11T09:18:43;-2.00;99.90
1988;DHT22;12775;46.994;15.498;2024-01-11T09:21:10;-1.80;99.90
1988;DHT22;12775;46.994;15.498;2024-01-11T09:23:37;-1.80;99.90
1988;DHT22;12775;46.994;15.498;2024-01-11T09:26:04;-1.80;99.90
1988;DHT22;12775;46.994;15.498;2024-01-11T09:28:32;-1.80;99.90
1988;DHT22;12775;46.994;15.498;2024-01-11T09:30:59;-1.80;99.90
1988;DHT22;12775;46.994;15.498;2024-01-11T09:33:27;-1.70;99.90
1988;DHT22;12775;46.994;15.498;2024-01-11T09:35:54;-1.70;99.90
1988;DHT22;12775;46.994;15.498;2024-01-11T09:38:22;-1.60;99.90
1988;DHT22;12775;46.994;15.498;2024-01-11T09:41:03;-1.60;99.90
1988;DHT22;12775;46.994;15.498;2024-01-11T09:43:17;-1.60;99.90
1988;DHT22;12775;46.994;15.498;2024-01-11T09:45:44;-1.50;99.90
1988;DHT22;12775;46.994;15.498;2024-01-11T09:48:12;-1.40;99.90
1988;DHT22;12775;46.994;15.498;2024-01-11T09:50:39;-1.30;99.90
1988;DHT22;12775;46.994;15.498;2024-01-11T09:53:06;-1.20;99.90
1988;DHT22;12775;46.994;15.498;2024-01-11T09:55:34;-1.20;99.90
1988;DHT22;12775;46.994;15.498;2024-01-11T09:58:01;-1.10;99.90
1988;DHT22;12775;46.994;15.498;2024-01-11T10:00:28;-1.00;99.90
1988;DHT22;12775;46.994;15.498;2024-01-11T10:02:56;-0.90;99.90
1988;DHT22;12775;46.994;15.498;2024-01-11T10:05:23;-0.90;99.90
1988;DHT22;12775;46.994;15.498;2024-01-11T10:07:51;-0.80;99.90
1988;DHT22;12775;46.994;15.498;2024-01-11T10:10:18;-0.60;99.90
1988;DHT22;12775;46.994;15.498;2024-01-11T10:12:46;-0.60;99.90
1988;DHT22;12775;46.994;15.498;2024-01-11T10:15:13;-0.50;99.90
1988;DHT22;12775;46.994;15.498;2024-01-11T10:17:42;-0.60;99.90
1988;DHT22;12775;46.994;15.498;2024-01-11T10:20:11;-0.30;99.90
1988;DHT22;12775;46.994;15.498;2024-01-11T10:22:37;-0.30;99.90
1988;DHT22;12775;46.994;15.498;2024-01-11T10:25:11;-0.20;99.90
1988;DHT22;12775;46.994;15.498;2024-01-11T10:27:41;-0.10;99.90
1988;DHT22;12775;46.994;15.498;2024-01-11T10:30:08;0.10;99.80
1988;DHT22;12775;46.994;15.498;2024-01-11T10:32:36;0.30;99.90
1988;DHT22;12775;46.994;15.498;2024-01-11T10:35:04;0.40;99.60
1988;DHT22;12775;46.994;15.498;2024-01-11T10:37:31;0.30;99.50
1988;DHT22;12775;46.994;15.498;2024-01-11T10:39:57;0.60;99.90
1988;DHT22;12775;46.994;15.498;2024-01-11T10:42:24;0.70;99.70
1988;DHT22;12775;46.994;15.498;2024-01-11T10:44:51;1.00;99.90
1988;DHT22;12775;46.994;15.498;2024-01-11T10:47:18;1.10;98.90
1988;DHT22;12775;46.994;15.498;2024-01-11T10:49:45;1.20;98.90
1988;DHT22;12775;46.994;15.498;2024-01-11T10:52:13;1.30;97.10
1988;DHT22;12775;46.994;15.498;2024-01-11T10:54:40;1.40;96.50
1988;DHT22;12775;46.994;15.498;2024-01-11T10:57:08;1.60;97.40
1988;DHT22;12775;46.994;15.498;2024-01-11T10:59:35;1.70;98.60
1988;DHT22;12775;46.994;15.498;2024-01-11T11:02:04;1.80;97.30
1988;DHT22;12775;46.994;15.498;2024-01-11T11:04:31;1.80;97.30
1988;DHT22;12775;46.994;15.498;2024-01-11T11:06:57;2.00;97.40
1988;DHT22;12775;46.994;15.498;2024-01-11T11:09:25;2.10;95.50
1988;DHT22;12775;46.994;15.498;2024-01-11T11:11:55;2.30;96.60
1988;DHT22;12775;46.994;15.498;2024-01-11T11:14:23;2.40;97.00
1988;DHT22;12775;46.994;15.498;2024-01-11T11:16:51;2.50;96.60
1988;DHT22;12775;46.994;15.498;2024-01-11T11:19:19;2.60;96.60
1988;DHT22;12775;46.994;15.498;2024-01-11T11:21:47;2.70;93.10
1988;DHT22;12775;46.994;15.498;2024-01-11T11:24:13;2.80;95.20
1988;DHT22;12775;46.994;15.498;2024-01-11T11:26:41;2.80;94.10
1988;DHT22;12775;46.994;15.498;2024-01-11T11:29:08;2.80;94.10
1988;DHT22;12775;46.994;15.498;2024-01-11T11:31:38;2.90;94.00
1988;DHT22;12775;46.994;15.498;2024-01-11T11:34:05;3.20;94.40
1988;DHT22;12775;46.994;15.498;2024-01-11T11:36:33;3.20;90.30
1988;DHT22;12775;46.994;15.498;2024-01-11T11:39:01;3.20;87.60
1988;DHT22;12775;46.994;15.498;2024-01-11T11:41:30;3.20;87.40
1988;DHT22;12775;46.994;15.498;2024-01-11T11:43:55;3.20;88.10
1988;DHT22;12775;46.994;15.498;2024-01-11T11:46:23;3.30;91.00
1988;DHT22;12775;46.994;15.498;2024-01-11T11:48:50;3.40;90.20
1988;DHT22;12775;46.994;15.498;2024-01-11T11:51:18;3.50;91.40
1988;DHT22;12775;46.994;15.498;2024-01-11T11:53:45;3.40;91.40
1988;DHT22;12775;46.994;15.498;2024-01-11T11:56:12;3.50;85.20
1988;DHT22;12775;46.994;15.498;2024-01-11T11:58:39;3.50;85.20
1988;DHT22;12775;46.994;15.498;2024-01-11T12:01:06;3.70;89.30
1988;DHT22;12775;46.994;15.498;2024-01-11T12:03:35;3.80;90.30
1988;DHT22;12775;46.994;15.498;2024-01-11T12:06:04;3.90;90.30
1988;DHT22;12775;46.994;15.498;2024-01-11T12:08:31;4.00;90.90
1988;DHT22;12775;46.994;15.498;2024-01-11T12:10:58;4.10;90.50
1988;DHT22;12775;46.994;15.498;2024-01-11T12:13:26;4.20;89.90
1988;DHT22;12775;46.994;15.498;2024-01-11T12:15:53;4.30;88.80
1988;DHT22;12775;46.994;15.498;2024-01-11T12:18:20;4.40;84.00
1988;DHT22;12775;46.994;15.498;2024-01-11T12:20:48;4.40;83.50
1988;DHT22;12775;46.994;15.498;2024-01-11T12:23:14;4.40;83.50
1988;DHT22;12775;46.994;15.498;2024-01-11T12:25:42;4.50;85.40
1988;DHT22;12775;46.994;15.498;2024-01-11T12:28:09;4.60;84.50
1988;DHT22;12775;46.994;15.498;2024-01-11T12:30:36;4.70;84.90
1988;DHT22;12775;46.994;15.498;2024-01-11T12:33:04;4.70;85.20
1988;DHT22;12775;46.994;15.498;2024-01-11T12:35:31;4.70;80.50
1988;DHT22;12775;46.994;15.498;2024-01-11T12:37:59;4.60;81.40
1988;DHT22;12775;46.994;15.498;2024-01-11T12:40:26;4.50;78.10
1988;DHT22;12775;46.994;15.498;2024-01-11T12:42:53;4.60;79.30
1988;DHT22;12775;46.994;15.498;2024-01-11T12:45:21;4.50;75.30
1988;DHT22;12775;46.994;15.498;2024-01-11T12:47:48;4.50;76.30
1988;DHT22;12775;46.994;15.498;2024-01-11T12:50:15;4.50;77.20
1988;DHT22;12775;46.994;15.498;2024-01-11T12:52:43;4.40;74.20
1988;DHT22;12775;46.994;15.498;2024-01-11T12:55:25;4.40;74.20
1988;DHT22;12775;46.994;15.498;2024-01-11T12:58:02;4.40;76.00
1988;DHT22;12775;46.994;15.498;2024-01-11T13:00:20;4.50;76.10
1988;DHT22;12775;46.994;15.498;2024-01-11T13:02:47;4.40;75.40
1988;DHT22;12775;46.994;15.498;2024-01-11T13:05:14;4.40;75.90
1988;DHT22;12775;46.994;15.498;2024-01-11T13:07:44;4.30;75.70
1988;DHT22;12775;46.994;15.498;2024-01-11T13:10:11;4.30;75.70
1988;DHT22;12775;46.994;15.498;2024-01-11T13:12:37;4.40;77.90
1988;DHT22;12775;46.994;15.498;2024-01-11T13:15:04;4.40;78.30
1988;DHT22;12775;46.994;15.498;2024-01-11T13:17:31;4.40;78.20
1988;DHT22;12775;46.994;15.498;2024-01-11T13:19:58;4.40;78.30
1988;DHT22;12775;46.994;15.498;2024-01-11T13:22:24;4.50;78.60
1988;DHT22;12775;46.994;15.498;2024-01-11T13:24:51;4.40;76.50
1988;DHT22;12775;46.994;15.498;2024-01-11T13:27:17;4.30;73.60
1988;DHT22;12775;46.994;15.498;2024-01-11T13:29:44;4.20;73.30
1988;DHT22;12775;46.994;15.498;2024-01-11T13:32:11;4.00;73.70
1988;DHT22;12775;46.994;15.498;2024-01-11T13:34:38;4.00;74.20
1988;DHT22;12775;46.994;15.498;2024-01-11T13:37:05;4.00;76.20
1988;DHT22;12775;46.994;15.498;2024-01-11T13:39:33;3.90;76.60
1988;DHT22;12775;46.994;15.498;2024-01-11T13:42:00;3.90;76.50
1988;DHT22;12775;46.994;15.498;2024-01-11T13:44:27;3.90;76.90
1988;DHT22;12775;46.994;15.498;2024-01-11T13:46:55;4.00;75.40
1988;DHT22;12775;46.994;15.498;2024-01-11T13:49:22;3.90;75.60
1988;DHT22;12775;46.994;15.498;2024-01-11T13:51:49;3.90;75.60
1988;DHT22;12775;46.994;15.498;2024-01-11T13:54:15;4.00;73.30
1988;DHT22;12775;46.994;15.498;2024-01-11T13:56:42;4.00;72.60
1988;DHT22;12775;46.994;15.498;2024-01-11T13:59:09;4.00;72.70
1988;DHT22;12775;46.994;15.498;2024-01-11T14:01:36;4.00;72.70
1988;DHT22;12775;46.994;15.498;2024-01-11T14:04:04;4.10;74.00
1988;DHT22;12775;46.994;15.498;2024-01-11T14:06:32;4.10;73.50
1988;DHT22;12775;46.994;15.498;2024-01-11T14:08:59;4.10;73.90
1988;DHT22;12775;46.994;15.498;2024-01-11T14:11:26;4.10;73.40
1988;DHT22;12775;46.994;15.498;2024-01-11T14:13:55;4.10;73.60
1988;DHT22;12775;46.994;15.498;2024-01-11T14:16:22;4.20;73.20
1988;DHT22;12775;46.994;15.498;2024-01-11T14:18:49;4.10;72.50
1988;DHT22;12775;46.994;15.498;2024-01-11T14:21:17;4.20;73.10
1988;DHT22;12775;46.994;15.498;2024-01-11T14:23:44;4.10;73.40
1988;DHT22;12775;46.994;15.498;2024-01-11T14:26:11;4.00;72.80
1988;DHT22;12775;46.994;15.498;2024-01-11T14:28:39;4.00;73.10
1988;DHT22;12775;46.994;15.498;2024-01-11T14:31:06;4.00;72.80
1988;DHT22;12775;46.994;15.498;2024-01-11T14:33:34;4.00;72.30
1988;DHT22;12775;46.994;15.498;2024-01-11T14:36:01;4.00;71.90
1988;DHT22;12775;46.994;15.498;2024-01-11T14:38:28;4.00;72.00
1988;DHT22;12775;46.994;15.498;2024-01-11T14:40:56;4.00;72.20
1988;DHT22;12775;46.994;15.498;2024-01-11T14:43:23;4.00;72.40
1988;DHT22;12775;46.994;15.498;2024-01-11T14:45:50;4.00;72.00
1988;DHT22;12775;46.994;15.498;2024-01-11T14:48:18;3.90;72.30
1988;DHT22;12775;46.994;15.498;2024-01-11T14:50:45;3.90;72.60
1988;DHT22;12775;46.994;15.498;2024-01-11T14:53:12;3.90;72.60
1988;DHT22;12775;46.994;15.498;2024-01-11T14:55:40;3.90;72.70
1988;DHT22;12775;46.994;15.498;2024-01-11T14:58:07;3.90;72.50
1988;DHT22;12775;46.994;15.498;2024-01-11T15:00:35;3.90;72.20
1988;DHT22;12775;46.994;15.498;2024-01-11T15:03:02;3.90;72.50
1988;DHT22;12775;46.994;15.498;2024-01-11T15:05:29;4.00;72.50
1988;DHT22;12775;46.994;15.498;2024-01-11T15:07:57;3.90;72.40
1988;DHT22;12775;46.994;15.498;2024-01-11T15:10:25;3.90;72.50
1988;DHT22;12775;46.994;15.498;2024-01-11T15:12:52;3.80;72.80
1988;DHT22;12775;46.994;15.498;2024-01-11T15:15:19;3.90;73.10
1988;DHT22;12775;46.994;15.498;2024-01-11T15:17:46;3.80;72.80
1988;DHT22;12775;46.994;15.498;2024-01-11T15:20:14;3.80;72.40
1988;DHT22;12775;46.994;15.498;2024-01-11T15:22:40;3.80;72.40
1988;DHT22;12775;46.994;15.498;2024-01-11T15:25:07;3.70;72.90
1988;DHT22;12775;46.994;15.498;2024-01-11T15:27:34;3.50;73.90
1988;DHT22;12775;46.994;15.498;2024-01-11T15:30:02;3.40;74.20
1988;DHT22;12775;46.994;15.498;2024-01-11T15:32:29;3.40;74.30
1988;DHT22;12775;46.994;15.498;2024-01-11T15:34:57;3.40;74.50